createdAt,value
2023-02-06T00:00:00.073Z,5.80
2023-02-06T00:05:02.276Z,5.70
2023-02-06T00:10:06.745Z,5.70
2023-02-06T00:15:10.145Z,5.70
2023-02-06T00:20:13.408Z,5.60
2023-02-06T00:25:20.051Z,5.60
2023-02-06T00:30:22.337Z,5.60
2023-02-06T00:35:24.545Z,5.60
2023-02-06T00:40:28.262Z,5.60
2023-02-06T00:45:30.513Z,5.50
2023-02-06T00:50:32.672Z,5.40
2023-02-06T00:55:36.520Z,5.40
2023-02-06T01:00:39.005Z,5.40
2023-02-06T01:05:41.273Z,5.30
2023-02-06T01:10:45.278Z,5.40
2023-02-06T01:15:48.998Z,5.30
2023-02-06T01:20:53.042Z,5.40
2023-02-06T01:25:56.570Z,5.40
2023-02-06T01:30:58.786Z,5.40
2023-02-06T01:36:01.282Z,5.50
2023-02-06T01:41:05.811Z,5.40
2023-02-06T01:46:08.793Z,5.50
2023-02-06T01:51:15.245Z,5.50
2023-02-06T01:56:20.622Z,5.40
2023-02-06T02:01:22.979Z,5.50
2023-02-06T02:06:27.544Z,5.50
2023-02-06T02:11:33.471Z,5.50
2023-02-06T02:16:46.435Z,5.50
2023-02-06T02:22:29.298Z,5.50
2023-02-06T02:27:54.781Z,5.40
2023-02-06T02:33:38.761Z,5.30
2023-02-06T02:38:51.877Z,5.20
2023-02-06T02:44:01.162Z,5.10
2023-02-06T02:49:06.742Z,5.10
2023-02-06T02:54:10.765Z,5.00
2023-02-06T02:59:17.341Z,4.90
2023-02-06T03:04:25.624Z,4.90
2023-02-06T03:09:45.613Z,4.80
2023-02-06T03:14:55.557Z,4.80
2023-02-06T03:20:02.424Z,4.80
2023-02-06T03:25:12.510Z,4.70
2023-02-06T03:30:16.622Z,4.70
2023-02-06T03:35:22.188Z,4.70
2023-02-06T03:40:28.036Z,4.60
2023-02-06T03:45:34.086Z,4.70
2023-02-06T03:50:41.520Z,4.70
2023-02-06T03:55:47.287Z,4.70
2023-02-06T04:00:50.169Z,4.80
2023-02-06T04:05:52.297Z,4.80
2023-02-06T04:10:56.016Z,4.80
2023-02-06T04:15:58.105Z,4.80
2023-02-06T04:21:04.442Z,4.80
2023-02-06T04:26:07.964Z,4.80
2023-02-06T04:31:10.158Z,4.90
2023-02-06T04:36:12.287Z,4.90
2023-02-06T04:41:15.751Z,4.90
2023-02-06T04:46:17.974Z,4.90
2023-02-06T04:51:20.133Z,4.80
2023-02-06T04:56:23.764Z,4.80
2023-02-06T05:01:26.106Z,4.80
2023-02-06T05:06:28.441Z,4.90
2023-02-06T05:11:32.078Z,4.80
2023-02-06T05:16:34.184Z,4.80
2023-02-06T05:21:36.241Z,4.90
2023-02-06T05:26:39.747Z,4.90
2023-02-06T05:31:42.038Z,5.00
2023-02-06T05:36:44.357Z,5.00
2023-02-06T05:41:47.896Z,5.10
2023-02-06T05:46:50.077Z,5.10
2023-02-06T05:51:52.191Z,5.20
2023-02-06T05:56:55.718Z,5.20
2023-02-06T06:01:57.917Z,5.30
2023-02-06T06:07:02.822Z,5.30
2023-02-06T06:12:12.136Z,5.30
2023-02-06T06:17:18.767Z,5.40
2023-02-06T06:22:29.313Z,5.40
2023-02-06T06:27:40.502Z,5.50
2023-02-06T06:32:45.204Z,5.50
2023-02-06T06:37:48.860Z,5.40
2023-02-06T06:42:52.645Z,5.30
2023-02-06T06:47:54.864Z,5.30
2023-02-06T06:52:56.982Z,5.40
2023-02-06T06:58:00.652Z,5.40
2023-02-06T07:03:03.103Z,5.40
2023-02-06T07:08:05.717Z,5.40
2023-02-06T07:13:09.365Z,5.40
2023-02-06T07:18:11.999Z,5.50
2023-02-06T07:23:14.185Z,5.60
2023-02-06T07:28:17.890Z,5.70
2023-02-06T07:33:20.267Z,5.70
2023-02-06T07:38:22.656Z,5.80
2023-02-06T07:43:26.326Z,5.80
2023-02-06T07:48:28.840Z,5.80
2023-02-06T07:53:30.938Z,5.90
2023-02-06T07:58:34.542Z,5.90
2023-02-06T08:03:36.767Z,6.00
2023-02-06T08:08:39.067Z,6.00
2023-02-06T08:13:43.315Z,6.20
2023-02-06T08:18:45.604Z,6.30
2023-02-06T08:23:48.109Z,6.30
2023-02-06T08:28:52.294Z,6.30
2023-02-06T08:34:00.969Z,6.40
2023-02-06T08:39:04.724Z,6.60
2023-02-06T08:44:11.210Z,7.00
2023-02-06T08:49:15.579Z,7.50
2023-02-06T08:54:19.281Z,8.00
2023-02-06T08:59:22.973Z,8.20
2023-02-06T09:04:25.222Z,8.20
2023-02-06T09:09:27.476Z,8.20
2023-02-06T09:14:31.823Z,8.20
2023-02-06T09:19:34.000Z,8.50
2023-02-06T09:24:37.374Z,8.90
2023-02-06T09:29:41.223Z,9.20
2023-02-06T09:34:43.328Z,9.50
2023-02-06T09:39:45.509Z,10.00
2023-02-06T09:44:54.499Z,10.90
2023-02-06T09:50:00.255Z,12.10
2023-02-06T09:55:10.415Z,13.20
2023-02-06T10:00:29.742Z,14.20
2023-02-06T10:05:43.900Z,14.80
2023-02-06T10:10:53.420Z,15.10
2023-02-06T10:16:01.914Z,15.30
2023-02-06T10:21:10.632Z,15.60
2023-02-06T10:26:16.054Z,16.10
2023-02-06T10:31:47.028Z,16.70
2023-02-06T10:37:02.968Z,17.30
2023-02-06T10:42:13.670Z,17.70
2023-02-06T10:47:26.656Z,17.90
2023-02-06T10:52:33.546Z,17.70
2023-02-06T10:57:35.976Z,17.40
2023-02-06T11:02:46.333Z,16.90
2023-02-06T11:07:54.623Z,16.60
2023-02-06T11:13:02.362Z,16.50
2023-02-06T11:18:10.468Z,16.70
2023-02-06T11:23:18.983Z,17.00
2023-02-06T11:28:22.625Z,17.50
2023-02-06T11:33:35.904Z,17.90
2023-02-06T11:38:38.076Z,18.30
2023-02-06T11:43:49.482Z,18.50
2023-02-06T11:49:05.604Z,18.30
2023-02-06T11:54:20.546Z,18.00
2023-02-06T11:59:22.842Z,17.70
2023-02-06T12:04:34.239Z,17.70
2023-02-06T12:09:36.597Z,17.50
2023-02-06T12:14:42.014Z,17.50
2023-02-06T12:19:49.940Z,17.50
2023-02-06T12:24:55.896Z,17.70
2023-02-06T12:30:03.397Z,17.70
2023-02-06T12:35:19.087Z,17.80
2023-02-06T12:40:35.087Z,17.90
2023-02-06T12:45:46.514Z,18.00
2023-02-06T12:51:09.749Z,17.90
2023-02-06T12:56:22.083Z,17.80
2023-02-06T13:01:42.480Z,18.00
2023-02-06T13:06:51.690Z,18.40
2023-02-06T13:11:54.834Z,18.30
2023-02-06T13:17:03.127Z,17.90
2023-02-06T13:22:39.082Z,17.40
2023-02-06T13:27:41.725Z,17.10
2023-02-06T13:32:48.333Z,17.10
2023-02-06T13:38:12.611Z,17.20
2023-02-06T13:43:20.054Z,17.40
2023-02-06T13:48:51.893Z,17.40
2023-02-06T13:54:40.250Z,17.20
2023-02-06T13:59:44.993Z,16.90
2023-02-06T14:04:48.225Z,16.80
2023-02-06T14:10:20.226Z,16.60
2023-02-06T14:15:31.905Z,16.40
2023-02-06T14:20:48.645Z,16.30
2023-02-06T14:26:14.832Z,16.10
2023-02-06T14:31:33.010Z,16.00
2023-02-06T14:36:59.421Z,15.90
2023-02-06T14:42:12.138Z,15.90
2023-02-06T14:47:19.496Z,15.70
2023-02-06T14:52:25.406Z,15.30
2023-02-06T14:57:31.903Z,14.70
2023-02-06T15:02:36.882Z,14.00
2023-02-06T15:07:39.471Z,13.50
2023-02-06T15:12:51.942Z,13.20
2023-02-06T15:18:00.723Z,12.70
2023-02-06T15:23:17.821Z,12.40
2023-02-06T15:28:27.518Z,12.00
2023-02-06T15:33:32.977Z,11.90
2023-02-06T15:38:35.652Z,11.90
2023-02-06T15:43:46.268Z,11.70
2023-02-06T15:48:54.199Z,11.40
2023-02-06T15:54:07.724Z,11.20
2023-02-06T15:59:18.123Z,11.00
2023-02-06T16:04:23.974Z,10.90
2023-02-06T16:09:27.368Z,10.90
2023-02-06T16:14:50.123Z,10.90
2023-02-06T16:19:56.829Z,10.80
2023-02-06T16:25:21.988Z,10.80
2023-02-06T16:30:28.208Z,10.60
2023-02-06T16:35:30.527Z,10.50
2023-02-06T16:40:32.693Z,10.40
2023-02-06T16:45:36.192Z,10.30
2023-02-06T16:50:39.766Z,10.10
2023-02-06T16:55:42.991Z,10.00
2023-02-06T17:00:47.155Z,9.90
2023-02-06T17:05:50.092Z,9.70
2023-02-06T17:10:55.134Z,9.60
2023-02-06T17:15:58.857Z,9.50
2023-02-06T17:21:00.951Z,9.30
2023-02-06T17:26:03.047Z,9.10
2023-02-06T17:31:07.069Z,8.90
2023-02-06T17:36:15.108Z,8.70
2023-02-06T17:41:17.209Z,8.60
2023-02-06T17:46:20.772Z,8.50
2023-02-06T17:51:22.925Z,8.30
2023-02-06T17:56:25.974Z,8.20
2023-02-06T18:01:30.675Z,8.10
2023-02-06T18:06:33.875Z,8.00
2023-02-06T18:11:35.993Z,7.90
2023-02-06T18:16:39.485Z,7.80
2023-02-06T18:21:41.621Z,7.80
2023-02-06T18:26:43.875Z,7.60
2023-02-06T18:31:47.582Z,7.60
2023-02-06T18:36:49.754Z,7.50
2023-02-06T18:41:51.985Z,7.40
2023-02-06T18:46:55.525Z,7.20
2023-02-06T18:51:57.638Z,7.00
2023-02-06T18:57:07.203Z,6.60
2023-02-06T19:02:11.800Z,6.40
2023-02-06T19:07:14.582Z,6.10
2023-02-06T19:12:16.727Z,5.90
2023-02-06T19:17:20.256Z,5.70
2023-02-06T19:22:22.558Z,5.60
2023-02-06T19:27:25.907Z,5.50
2023-02-06T19:32:29.479Z,5.40
2023-02-06T19:37:32.136Z,5.40
2023-02-06T19:42:34.237Z,5.30
2023-02-06T19:47:37.733Z,5.30
2023-02-06T19:52:39.984Z,5.40
2023-02-06T19:57:42.194Z,5.50
2023-02-06T20:02:45.920Z,5.50
2023-02-06T20:07:48.308Z,5.70
2023-02-06T20:12:50.550Z,5.60
2023-02-06T20:17:54.021Z,5.40
2023-02-06T20:22:56.487Z,5.30
2023-02-06T20:27:58.648Z,5.20
2023-02-06T20:33:02.566Z,5.20
2023-02-06T20:38:04.865Z,5.10
2023-02-06T20:43:09.997Z,5.00
2023-02-06T20:48:13.898Z,4.90
2023-02-06T20:53:16.034Z,4.90
2023-02-06T20:58:18.433Z,4.90
2023-02-06T21:03:22.489Z,4.70
2023-02-06T21:08:25.535Z,4.40
2023-02-06T21:13:27.792Z,4.30
2023-02-06T21:18:32.336Z,4.30
2023-02-06T21:23:34.552Z,4.20
2023-02-06T21:28:37.277Z,4.10
2023-02-06T21:33:41.067Z,4.00
2023-02-06T21:38:44.135Z,3.80
2023-02-06T21:43:46.394Z,3.70
2023-02-06T21:48:53.672Z,3.60
2023-02-06T21:53:55.932Z,3.40
2023-02-06T21:58:58.366Z,3.30
2023-02-06T22:04:03.812Z,3.20
2023-02-06T22:09:08.356Z,3.20
2023-02-06T22:14:13.399Z,3.10
2023-02-06T22:19:17.179Z,3.10
2023-02-06T22:24:19.363Z,3.00
2023-02-06T22:29:21.573Z,3.00
2023-02-06T22:34:25.092Z,2.90
2023-02-06T22:39:27.250Z,2.90
2023-02-06T22:44:29.437Z,2.80
2023-02-06T22:49:33.015Z,2.80
2023-02-06T22:54:35.206Z,2.80
2023-02-06T22:59:37.377Z,2.80
2023-02-06T23:04:40.961Z,2.80
2023-02-06T23:09:43.088Z,2.90
2023-02-06T23:14:45.176Z,2.90
2023-02-06T23:19:48.820Z,2.90
2023-02-06T23:24:50.994Z,2.90
2023-02-06T23:29:53.126Z,2.90
2023-02-06T23:34:56.613Z,2.90
2023-02-06T23:39:58.742Z,2.90
2023-02-06T23:45:01.002Z,3.00
2023-02-06T23:50:05.267Z,3.00
2023-02-06T23:55:07.912Z,3.00
